Time;durP1;ratioP1;P1;durP2;ratioP2;P2;SDS_P1;SDS_P2;PMS_P1;PMS_P2;Temp;Humidity;BMP_temperature;BMP_pressure;BME280_temperature;BME280_humidity;BME280_pressure;Samples;Min_cycle;Max_cycle;Signal;HPM_P1;HPM_P2
2023/08/18 00:00:11;;;;;;;10.13;8.10;;;;;;;16.55;100.00;100815.97;675290;29;1426;-63
2023/08/18 00:00:32;;;;;;;10.35;8.18;;;;;;;16.55;100.00;100819.47;676532;29;784;-61
2023/08/18 00:00:52;;;;;;;13.67;8.43;;;;;;;16.55;100.00;100819.47;677183;29;1078;-62
2023/08/18 00:01:14;;;;;;;13.50;8.02;;;;;;;16.54;100.00;100817.75;678488;29;2421;-63
2023/08/18 00:01:34;;;;;;;11.05;7.90;;;;;;;16.55;100.00;100826.53;677585;29;1452;-62
2023/08/18 00:01:54;;;;;;;10.50;8.40;;;;;;;16.56;100.00;100815.06;678822;29;1229;-60
2023/08/18 00:02:15;;;;;;;11.63;8.32;;;;;;;16.55;100.00;100819.47;676760;29;4351;-63
2023/08/18 00:02:36;;;;;;;10.98;7.90;;;;;;;16.55;100.00;100823.91;678767;29;1135;-61
2023/08/18 00:02:56;;;;;;;10.87;7.90;;;;;;;16.55;100.00;100814.19;679226;29;803;-63
2023/08/18 00:03:17;;;;;;;12.50;8.00;;;;;;;16.54;100.00;100815.09;677069;29;1504;-61
2023/08/18 00:03:37;;;;;;;11.53;8.23;;;;;;;16.52;100.00;100811.66;678219;29;1550;-62
2023/08/18 00:03:58;;;;;;;10.93;8.45;;;;;;;16.50;100.00;100813.44;679071;29;1982;-62
2023/08/18 00:04:18;;;;;;;10.10;7.87;;;;;;;16.50;100.00;100821.38;680852;28;1734;-61
2023/08/18 00:04:38;;;;;;;10.25;8.23;;;;;;;16.49;100.00;100820.50;681407;29;862;-60
2023/08/18 00:04:59;;;;;;;9.73;8.13;;;;;;;16.48;100.00;100821.41;681332;29;1466;-60
2023/08/18 00:05:19;;;;;;;9.77;7.53;;;;;;;16.47;100.00;100814.38;679206;28;4528;-62
2023/08/18 00:05:40;;;;;;;9.70;7.60;;;;;;;16.47;100.00;100821.44;680482;29;808;-60
2023/08/18 00:06:00;;;;;;;11.40;7.90;;;;;;;16.47;100.00;100818.81;679734;29;1745;-62
2023/08/18 00:06:20;;;;;;;11.75;8.10;;;;;;;16.46;100.00;100825.00;678845;29;905;-60
2023/08/18 00:06:41;;;;;;;10.43;8.00;;;;;;;16.43;100.00;100825.94;678827;29;1434;-61
2023/08/18 00:07:01;;;;;;;10.27;7.30;;;;;;;16.43;100.00;100825.09;679232;28;1537;-61
2023/08/18 00:07:22;;;;;;;9.17;7.50;;;;;;;16.43;100.00;100825.94;681323;29;894;-61
2023/08/18 00:07:42;;;;;;;9.80;8.05;;;;;;;16.44;100.00;100826.81;678667;29;1680;-60
2023/08/18 00:08:03;;;;;;;11.53;8.00;;;;;;;16.43;100.00;100819.81;677868;29;2530;-63
2023/08/18 00:08:23;;;;;;;12.05;7.70;;;;;;;16.43;100.00;100814.53;677853;29;4390;-61
2023/08/18 00:08:44;;;;;;;10.53;7.87;;;;;;;16.44;100.00;100816.25;678437;29;901;-63
2023/08/18 00:09:05;;;;;;;10.20;7.88;;;;;;;16.43;100.00;100820.66;676771;29;1497;-60
2023/08/18 00:09:25;;;;;;;9.65;7.75;;;;;;;16.42;100.00;100823.34;679023;29;1260;-61
2023/08/18 00:09:45;;;;;;;10.37;8.00;;;;;;;16.42;100.00;100823.34;678993;29;806;-59
2023/08/18 00:10:06;;;;;;;10.70;7.80;;;;;;;16.42;100.00;100818.06;679910;28;1517;-62
2023/08/18 00:10:26;;;;;;;11.57;7.65;;;;;;;16.41;100.00;100821.63;679912;29;910;-62
2023/08/18 00:10:47;;;;;;;11.63;7.67;;;;;;;16.41;100.00;100817.22;681249;29;877;-61
2023/08/18 00:11:08;;;;;;;10.95;7.43;;;;;;;16.41;100.00;100817.22;679944;28;4393;-62
2023/08/18 00:11:29;;;;;;;10.35;8.20;;;;;;;16.41;100.00;100811.09;680814;29;1268;-61
2023/08/18 00:11:50;;;;;;;10.07;8.23;;;;;;;16.41;100.00;100817.22;680586;29;913;-60
2023/08/18 00:12:11;;;;;;;11.27;8.07;;;;;;;16.41;100.00;100816.34;680754;28;971;-60
2023/08/18 00:12:32;;;;;;;11.02;7.82;;;;;;;16.39;100.00;100821.66;680730;29;742;-60
2023/08/18 00:12:52;;;;;;;9.20;7.47;;;;;;;16.37;100.00;100817.34;680635;28;1166;-62
2023/08/18 00:13:12;;;;;;;9.83;7.63;;;;;;;16.36;100.00;100819.09;680751;29;1283;-61
2023/08/18 00:13:33;;;;;;;10.30;7.50;;;;;;;16.34;100.00;100821.78;680143;29;790;-63
2023/08/18 00:13:53;;;;;;;9.60;7.63;;;;;;;16.34;100.00;100820.91;680069;29;952;-62
2023/08/18 00:14:13;;;;;;;9.63;7.30;;;;;;;16.34;100.00;100818.28;678561;28;4867;-61
2023/08/18 00:14:34;;;;;;;10.30;7.30;;;;;;;16.34;100.00;100819.13;679253;29;1339;-63
2023/08/18 00:14:55;;;;;;;9.63;7.50;;;;;;;16.34;100.00;100819.13;678843;29;1221;-61
2023/08/18 00:15:15;;;;;;;9.88;7.32;;;;;;;16.32;100.00;100818.31;674917;29;1075;-62
2023/08/18 00:15:36;;;;;;;9.60;7.50;;;;;;;16.32;100.00;100818.31;676232;29;3916;-62
2023/08/18 00:15:57;;;;;;;9.80;7.90;;;;;;;16.31;100.00;100820.97;676188;29;977;-61
2023/08/18 00:16:17;;;;;;;9.80;7.70;;;;;;;16.30;100.00;100817.50;675301;29;2490;-63
2023/08/18 00:16:38;;;;;;;9.32;7.43;;;;;;;16.29;100.00;100818.38;678225;29;879;-62
2023/08/18 00:17:00;;;;;;;8.87;7.30;;;;;;;16.28;100.00;100821.94;678129;29;786;-62
2023/08/18 00:17:21;;;;;;;10.10;8.23;;;;;;;16.29;100.00;100812.25;678068;29;4705;-62
2023/08/18 00:17:42;;;;;;;9.90;7.93;;;;;;;16.27;100.00;100814.94;678173;29;988;-62
2023/08/18 00:18:02;;;;;;;9.38;7.32;;;;;;;16.28;100.00;100818.44;677636;29;1287;-62
2023/08/18 00:18:23;;;;;;;10.55;7.47;;;;;;;16.26;100.00;100812.34;677902;29;869;-61
2023/08/18 00:18:43;;;;;;;10.17;7.70;;;;;;;16.27;100.00;100817.56;677698;29;818;-63
2023/08/18 00:19:04;;;;;;;9.90;7.97;;;;;;;16.28;100.00;100811.41;676299;29;2602;-62
2023/08/18 00:19:24;;;;;;;11.30;8.00;;;;;;;16.28;100.00;100819.31;677425;29;1344;-61
2023/08/18 00:19:45;;;;;;;11.45;7.93;;;;;;;16.29;100.00;100822.81;678533;29;1600;-62
2023/08/18 00:20:06;;;;;;;12.07;8.23;;;;;;;16.29;100.00;100815.75;677561;29;4561;-63
2023/08/18 00:20:26;;;;;;;12.90;8.07;;;;;;;16.29;100.00;100813.09;678708;29;982;-62
2023/08/18 00:20:49;;;;;;;11.27;8.30;;;;;;;16.29;100.00;100815.75;678680;29;775;-62
2023/08/18 00:21:09;;;;;;;10.30;7.78;;;;;;;16.28;100.00;100814.03;676615;29;1741;-63
2023/08/18 00:21:30;;;;;;;11.40;8.43;;;;;;;16.27;100.00;100820.22;679463;29;1160;-61
2023/08/18 00:21:50;;;;;;;13.30;8.80;;;;;;;16.25;100.00;100811.47;678449;29;913;-62
2023/08/18 00:22:10;;;;;;;11.00;7.80;;;;;;;16.27;100.00;100812.28;677637;29;1454;-61
2023/08/18 00:22:31;;;;;;;11.30;7.83;;;;;;;16.30;100.00;100817.50;679007;29;814;-61
2023/08/18 00:22:51;;;;;;;11.30;8.25;;;;;;;16.32;100.00;100817.44;678447;29;1272;-61
2023/08/18 00:23:12;;;;;;;11.03;7.67;;;;;;;16.31;100.00;100810.44;676108;29;4443;-62
2023/08/18 00:23:33;;;;;;;9.53;7.77;;;;;;;16.32;100.00;100813.06;678404;29;946;-62
2023/08/18 00:23:53;;;;;;;10.52;8.10;;;;;;;16.32;100.00;100813.06;679264;29;908;-62
2023/08/18 00:24:14;;;;;;;10.80;7.90;;;;;;;16.31;100.00;100813.06;677826;29;1797;-62
2023/08/18 00:24:35;;;;;;;10.77;7.45;;;;;;;16.30;100.00;100816.63;678909;29;1534;-61
2023/08/18 00:25:01;;;;;;;11.30;7.45;;;;;;;16.30;100.00;100820.13;677965;29;1196;-61
2023/08/18 00:25:21;;;;;;;10.60;7.72;;;;;;;16.33;100.00;100809.47;680165;28;1453;-61
2023/08/18 00:25:42;;;;;;;11.93;8.00;;;;;;;16.33;100.00;100809.47;679097;29;822;-62
2023/08/18 00:26:03;;;;;;;11.35;7.97;;;;;;;16.33;100.00;100806.84;677713;29;1861;-61
2023/08/18 00:26:23;;;;;;;9.95;8.25;;;;;;;16.32;100.00;100813.06;677531;29;4429;-62
2023/08/18 00:26:45;;;;;;;10.80;8.87;;;;;;;16.33;100.00;100817.41;678525;29;881;-62
2023/08/18 00:27:06;;;;;;;10.13;7.80;;;;;;;16.30;100.00;100806.94;677597;29;2485;-62
2023/08/18 00:27:26;;;;;;;11.70;7.50;;;;;;;16.29;100.00;100810.47;677572;29;916;-62
2023/08/18 00:27:47;;;;;;;11.13;7.63;;;;;;;16.29;100.00;100806.97;676668;29;1439;-64
2023/08/18 00:28:07;;;;;;;11.03;7.93;;;;;;;16.26;100.00;100804.44;676082;29;1479;-60
2023/08/18 00:28:28;;;;;;;11.63;7.50;;;;;;;16.26;100.00;100810.56;677449;29;949;-62
2023/08/18 00:28:48;;;;;;;11.03;7.80;;;;;;;16.25;100.00;100802.69;676401;29;1575;-62
2023/08/18 00:29:08;;;;;;;10.17;7.73;;;;;;;16.24;100.00;100799.19;677228;29;4650;-62
2023/08/18 00:29:29;;;;;;;10.23;7.88;;;;;;;16.22;100.00;100806.25;678216;29;1624;-61
2023/08/18 00:29:50;;;;;;;9.90;7.75;;;;;;;16.22;100.00;100805.41;672796;29;1174;-61
2023/08/18 00:30:11;;;;;;;10.52;7.80;;;;;;;16.24;100.00;100809.75;673916;29;2182;-61
2023/08/18 00:30:34;;;;;;;9.63;7.47;;;;;;;16.25;100.00;100810.59;673053;29;1421;-62
2023/08/18 00:30:55;;;;;;;10.65;7.97;;;;;;;16.24;100.00;100809.75;672009;29;981;-61
2023/08/18 00:31:15;;;;;;;11.53;7.83;;;;;;;16.22;100.00;100810.69;670203;29;1860;-61
2023/08/18 00:31:35;;;;;;;10.15;7.40;;;;;;;16.22;100.00;100808.91;672204;29;929;-63
2023/08/18 00:31:56;;;;;;;9.30;7.20;;;;;;;16.21;100.00;100804.53;673032;29;1465;-62
2023/08/18 00:32:17;;;;;;;10.40;7.27;;;;;;;16.21;100.00;100803.69;674095;29;4526;-62
2023/08/18 00:32:37;;;;;;;10.80;7.72;;;;;;;16.19;100.00;100810.78;678558;29;941;-61
2023/08/18 00:32:58;;;;;;;11.55;7.50;;;;;;;16.16;100.00;100809.06;678452;29;779;-62
2023/08/18 00:33:18;;;;;;;11.23;7.47;;;;;;;16.16;100.00;100809.94;678966;29;2175;-61
2023/08/18 00:33:39;;;;;;;10.55;7.65;;;;;;;16.16;100.00;100811.72;677651;29;1313;-61
2023/08/18 00:34:00;;;;;;;10.25;7.50;;;;;;;16.15;100.00;100808.19;677511;29;878;-62
2023/08/18 00:34:20;;;;;;;11.17;7.90;;;;;;;16.15;100.00;100808.19;676408;29;2320;-62
2023/08/18 00:34:41;;;;;;;11.00;8.18;;;;;;;16.13;100.00;100811.78;675747;29;869;-61
2023/08/18 00:35:01;;;;;;;11.13;8.50;;;;;;;16.13;100.00;100809.13;673677;29;1454;-62
2023/08/18 00:35:22;;;;;;;10.90;7.83;;;;;;;16.13;100.00;100809.13;672037;29;5267;-62
2023/08/18 00:35:42;;;;;;;10.50;7.50;;;;;;;16.12;100.00;100804.78;676878;29;1296;-61
2023/08/18 00:36:03;;;;;;;11.02;7.38;;;;;;;16.11;100.00;100806.53;675473;29;1745;-63
2023/08/18 00:36:27;;;;;;;9.52;7.30;;;;;;;16.12;100.00;100804.78;678427;29;1028;-61
2023/08/18 00:36:48;;;;;;;10.73;7.75;;;;;;;16.11;100.00;100808.31;679336;29;1560;-61
2023/08/18 00:37:08;;;;;;;9.25;7.45;;;;;;;16.13;100.00;100811.78;678968;29;2419;-62
2023/08/18 00:37:29;;;;;;;11.07;7.50;;;;;;;16.13;100.00;100806.50;677504;29;1273;-62
2023/08/18 00:37:49;;;;;;;10.88;7.38;;;;;;;16.14;100.00;100806.47;681950;29;1168;-61
2023/08/18 00:38:09;;;;;;;10.63;7.70;;;;;;;16.14;100.00;100810.88;680073;28;4562;-61
2023/08/18 00:38:30;;;;;;;10.80;7.80;;;;;;;16.14;100.00;100802.97;682100;29;870;-65
2023/08/18 00:38:51;;;;;;;10.88;8.00;;;;;;;16.14;100.00;100808.22;680991;28;1311;-61
2023/08/18 00:39:11;;;;;;;10.48;8.10;;;;;;;16.11;100.00;100809.19;678415;29;2385;-61
2023/08/18 00:39:31;;;;;;;11.73;7.90;;;;;;;16.10;100.00;100806.59;675149;29;1317;-61
2023/08/18 00:39:52;;;;;;;11.70;8.15;;;;;;;16.10;100.00;100802.19;673302;29;1241;-61
2023/08/18 00:40:12;;;;;;;10.57;7.70;;;;;;;16.13;100.00;100802.09;673469;29;1762;-62
2023/08/18 00:40:33;;;;;;;10.45;7.45;;;;;;;16.20;100.00;100809.84;674416;29;1545;-61
2023/08/18 00:40:55;;;;;;;9.80;7.40;;;;;;;16.20;100.00;100802.81;672124;29;1293;-66
2023/08/18 00:41:15;;;;;;;11.43;7.75;;;;;;;16.21;100.00;100809.81;673110;29;4488;-61
2023/08/18 00:41:36;;;;;;;9.57;7.10;;;;;;;16.20;100.00;100807.22;674665;29;1459;-62
2023/08/18 00:41:57;;;;;;;10.23;8.00;;;;;;;16.19;100.00;100806.34;673566;29;1292;-62
2023/08/18 00:42:17;;;;;;;10.95;8.07;;;;;;;16.16;100.00;100807.28;673280;29;1454;-61
2023/08/18 00:42:38;;;;;;;12.02;8.50;;;;;;;16.15;100.00;100812.63;672446;29;1446;-62
2023/08/18 00:42:58;;;;;;;11.20;8.17;;;;;;;16.10;100.00;100807.47;671779;29;1280;-61
2023/08/18 00:43:18;;;;;;;10.57;7.87;;;;;;;16.11;100.00;100803.91;671177;29;2624;-62
2023/08/18 00:43:39;;;;;;;10.53;7.73;;;;;;;16.09;100.00;100805.72;671244;29;1373;-61
2023/08/18 00:43:59;;;;;;;12.17;8.10;;;;;;;16.06;100.00;100804.94;674170;29;1988;-62
2023/08/18 00:44:20;;;;;;;11.43;8.23;;;;;;;16.04;100.00;100807.59;671929;29;4780;-62
2023/08/18 00:44:40;;;;;;;9.43;7.90;;;;;;;16.04;100.00;100812.88;676062;29;1261;-62
2023/08/18 00:45:00;;;;;;;10.27;7.80;;;;;;;16.04;100.00;100807.59;679033;29;803;-62
2023/08/18 00:45:21;;;;;;;11.73;7.80;;;;;;;16.06;100.00;100819.00;677235;29;3612;-63
2023/08/18 00:45:42;;;;;;;10.40;7.82;;;;;;;16.07;100.00;100809.31;682505;28;1171;-61
2023/08/18 00:46:03;;;;;;;11.32;7.90;;;;;;;16.07;100.00;100814.56;679746;29;1024;-61
2023/08/18 00:46:23;;;;;;;11.60;7.93;;;;;;;16.03;100.00;100811.13;678722;29;1545;-61
2023/08/18 00:46:44;;;;;;;11.45;8.10;;;;;;;16.03;100.00;100815.56;677709;29;1012;-64
2023/08/18 00:47:05;;;;;;;11.35;7.97;;;;;;;16.03;100.00;100810.28;674817;29;1904;-61
2023/08/18 00:47:26;;;;;;;11.88;8.25;;;;;;;16.02;100.00;100809.44;676414;29;5801;-62
2023/08/18 00:47:47;;;;;;;11.75;8.80;;;;;;;15.99;100.00;100805.09;674703;29;1379;-62
2023/08/18 00:48:08;;;;;;;11.65;7.82;;;;;;;15.99;100.00;100805.09;675695;29;2353;-62
2023/08/18 00:48:29;;;;;;;11.32;8.35;;;;;;;15.97;100.00;100817.44;674533;29;898;-61
2023/08/18 00:48:50;;;;;;;9.73;7.40;;;;;;;15.96;100.00;100805.19;674651;29;1067;-62
2023/08/18 00:49:10;;;;;;;10.60;7.85;;;;;;;15.98;100.00;100813.03;675840;29;5701;-61
2023/08/18 00:49:31;;;;;;;10.67;8.10;;;;;;;15.99;100.00;100810.38;674474;29;1456;-61
2023/08/18 00:49:54;;;;;;;11.23;8.77;;;;;;;16.01;100.00;100818.25;673409;29;1026;-61
2023/08/18 00:50:17;;;;;;;10.68;8.00;;;;;;;16.05;100.00;100806.72;672791;29;4340;-62
2023/08/18 00:50:38;;;;;;;9.85;7.20;;;;;;;16.05;100.00;100808.47;674583;29;1318;-62
2023/08/18 00:51:00;;;;;;;12.75;7.88;;;;;;;16.05;100.00;100814.63;675152;29;1281;-63
2023/08/18 00:51:21;;;;;;;11.43;7.75;;;;;;;16.06;100.00;100804.94;675653;29;1742;-63
2023/08/18 00:51:42;;;;;;;11.32;7.50;;;;;;;16.04;100.00;100804.13;675697;29;830;-61
2023/08/18 00:52:05;;;;;;;10.82;7.35;;;;;;;16.03;100.00;100805.00;673880;29;1760;-61
2023/08/18 00:52:26;;;;;;;11.15;7.75;;;;;;;16.04;100.00;100804.13;676404;29;1128;-61
2023/08/18 00:52:56;;;;;;;10.98;7.80;;;;;;;16.02;100.00;100801.53;679674;29;1307;-62
2023/08/18 00:53:17;;;;;;;10.18;7.47;;;;;;;16.02;100.00;100800.63;674910;29;4715;-62
2023/08/18 00:53:41;;;;;;;9.60;7.40;;;;;;;15.99;100.00;100799.81;677172;29;826;-62
2023/08/18 00:54:04;;;;;;;10.15;7.55;;;;;;;15.97;100.00;100796.34;676430;29;1226;-61
2023/08/18 00:54:27;;;;;;;11.07;8.10;;;;;;;15.96;100.00;100806.94;677158;29;1229;-62
2023/08/18 00:54:49;;;;;;;11.30;8.13;;;;;;;15.99;100.00;100798.94;677173;29;1237;-62
2023/08/18 00:55:13;;;;;;;10.40;7.70;;;;;;;15.99;100.00;100805.09;676259;29;1652;-61
2023/08/18 00:55:34;;;;;;;10.57;7.53;;;;;;;15.99;100.00;100805.09;677245;29;882;-62
2023/08/18 00:55:54;;;;;;;12.00;7.93;;;;;;;15.97;100.00;100806.88;677504;29;1334;-62
2023/08/18 00:56:16;;;;;;;11.20;7.97;;;;;;;15.97;100.00;100804.25;678743;29;4537;-62
2023/08/18 00:56:37;;;;;;;10.50;8.25;;;;;;;15.97;100.00;100808.66;678735;29;1049;-62
2023/08/18 00:56:59;;;;;;;13.07;8.68;;;;;;;15.96;100.00;100805.19;677846;29;2027;-63
2023/08/18 00:57:20;;;;;;;10.47;7.90;;;;;;;15.97;100.00;100803.41;678173;29;1809;-62
2023/08/18 00:57:40;;;;;;;10.63;8.30;;;;;;;15.98;100.00;100797.22;677038;29;1173;-63
2023/08/18 00:58:02;;;;;;;12.57;8.52;;;;;;;16.01;100.00;100812.97;679527;29;1124;-61
2023/08/18 00:58:23;;;;;;;14.38;8.35;;;;;;;16.00;100.00;100809.47;676199;29;1435;-60
2023/08/18 00:58:44;;;;;;;11.13;8.00;;;;;;;16.00;100.00;100798.94;673869;29;1789;-62
2023/08/18 00:59:06;;;;;;;9.70;7.57;;;;;;;16.00;100.00;100798.03;673247;29;1863;-61
2023/08/18 00:59:26;;;;;;;9.25;7.30;;;;;;;16.00;100.00;100806.84;675186;29;4658;-61
2023/08/18 00:59:49;;;;;;;9.43;7.27;;;;;;;16.00;100.00;100800.69;677277;29;973;-62
2023/08/18 01:00:10;;;;;;;10.90;7.90;;;;;;;16.00;100.00;100800.69;677223;29;1018;-60
2023/08/18 01:00:30;;;;;;;9.85;7.65;;;;;;;15.98;100.00;100803.34;679643;29;989;-62
2023/08/18 01:00:51;;;;;;;10.57;7.67;;;;;;;15.97;100.00;100798.97;675192;29;1257;-62
2023/08/18 01:01:13;;;;;;;10.32;7.88;;;;;;;15.96;100.00;100807.81;674831;29;1692;-61
2023/08/18 01:01:34;;;;;;;10.80;7.60;;;;;;;15.97;100.00;100806.03;675714;29;993;-61
2023/08/18 01:02:02;;;;;;;11.38;7.50;;;;;;;15.97;100.00;100800.75;675130;29;1702;-62
2023/08/18 01:02:22;;;;;;;11.10;7.60;;;;;;;15.96;100.00;100802.53;672609;29;4328;-64
2023/08/18 01:02:44;;;;;;;10.43;7.60;;;;;;;15.95;100.00;100800.81;675925;29;795;-62
2023/08/18 01:03:07;;;;;;;10.10;7.28;;;;;;;15.96;100.00;100799.03;675299;29;1810;-62
2023/08/18 01:03:30;;;;;;;10.63;7.70;;;;;;;15.94;100.00;100795.56;676400;29;1004;-61
2023/08/18 01:03:51;;;;;;;11.98;8.02;;;;;;;15.94;100.00;100799.06;676926;29;1466;-61
2023/08/18 01:04:12;;;;;;;11.43;7.63;;;;;;;15.94;100.00;100796.44;679633;29;1955;-61
2023/08/18 01:04:33;;;;;;;10.80;7.50;;;;;;;15.95;100.00;100798.16;680079;29;1308;-61
2023/08/18 01:05:00;;;;;;;10.23;7.70;;;;;;;15.94;100.00;100795.56;679783;29;881;-61
2023/08/18 01:05:20;;;;;;;12.20;7.63;;;;;;;15.96;100.00;100793.75;675133;29;4821;-63
2023/08/18 01:05:41;;;;;;;9.10;7.13;;;;;;;15.94;100.00;100791.16;677325;29;1303;-63
2023/08/18 01:06:02;;;;;;;9.38;7.15;;;;;;;15.95;100.00;100795.53;674780;29;1335;-62
2023/08/18 01:06:23;;;;;;;11.70;8.05;;;;;;;15.92;100.00;100792.97;675020;29;1246;-62
2023/08/18 01:06:43;;;;;;;12.67;8.20;;;;;;;15.92;100.00;100792.09;674590;29;823;-61
2023/08/18 01:07:04;;;;;;;10.67;7.93;;;;;;;15.91;100.00;100788.59;674694;29;1499;-62
2023/08/18 01:07:25;;;;;;;12.32;7.65;;;;;;;15.92;100.00;100789.44;675123;29;842;-61
2023/08/18 01:07:46;;;;;;;10.00;7.33;;;;;;;15.92;100.00;100786.81;677230;29;985;-61
2023/08/18 01:08:07;;;;;;;10.02;8.10;;;;;;;15.90;100.00;100789.50;675658;29;5118;-64
2023/08/18 01:08:27;;;;;;;12.85;8.38;;;;;;;15.91;100.00;100790.34;677530;29;1261;-61
2023/08/18 01:08:49;;;;;;;11.77;7.50;;;;;;;15.90;100.00;100789.50;679994;29;1295;-61
2023/08/18 01:09:10;;;;;;;10.38;7.47;;;;;;;15.89;100.00;100787.75;678303;29;1817;-62
2023/08/18 01:09:32;;;;;;;10.38;7.45;;;;;;;15.89;100.00;100793.03;677252;29;1244;-62
2023/08/18 01:09:53;;;;;;;10.60;7.37;;;;;;;15.90;100.00;100789.50;677989;29;982;-62
2023/08/18 01:10:14;;;;;;;11.20;8.00;;;;;;;15.90;100.00;100784.22;677154;29;1077;-62
2023/08/18 01:10:49;;;;;;;10.65;7.90;;;;;;;15.90;100.00;100789.50;675500;29;810;-62
2023/08/18 01:11:17;;;;;;;10.33;7.53;;;;;;;15.91;100.00;100793.88;672009;29;4442;-63
2023/08/18 01:12:07;;;;;;;11.18;7.43;;;;;;;15.91;100.00;100791.25;676753;29;3908;-60
2023/08/18 01:12:52;;;;;;;9.90;7.53;;;;;;;15.89;100.00;100792.16;674424;29;900;-61
2023/08/18 01:13:35;;;;;;;11.43;7.75;;;;;;;15.91;100.00;100788.59;675657;29;2214;-60
2023/08/18 01:14:08;;;;;;;9.40;7.20;;;;;;;15.89;100.00;100790.38;674796;29;1284;-61
2023/08/18 01:14:54;;;;;;;10.10;7.45;;;;;;;15.88;100.00;100790.44;673637;29;5232;-63
2023/08/18 01:15:24;;;;;;;10.35;7.22;;;;;;;15.87;100.00;100788.69;675398;29;1795;-62
2023/08/18 01:15:46;;;;;;;9.88;7.68;;;;;;;15.86;100.00;100795.75;677681;29;944;-62
2023/08/18 01:16:15;;;;;;;9.63;7.70;;;;;;;15.84;100.00;100789.66;678708;29;987;-62
2023/08/18 01:16:38;;;;;;;9.77;7.43;;;;;;;15.84;100.00;100794.94;678305;29;1355;-63
2023/08/18 01:17:11;;;;;;;8.77;7.35;;;;;;;15.83;100.00;100788.78;678569;29;1423;-61
2023/08/18 01:17:40;;;;;;;9.45;7.18;;;;;;;15.85;100.00;100786.09;675329;29;5003;-62
2023/08/18 01:18:03;;;;;;;9.15;7.07;;;;;;;15.85;100.00;100791.38;677414;29;862;-62
2023/08/18 01:18:24;;;;;;;8.63;7.00;;;;;;;15.85;100.00;100785.25;675657;29;1797;-61
2023/08/18 01:18:46;;;;;;;8.60;7.22;;;;;;;15.84;100.00;100781.75;676550;29;823;-62
2023/08/18 01:19:09;;;;;;;10.50;7.50;;;;;;;15.83;100.00;100783.50;676915;29;2843;-62
2023/08/18 01:19:30;;;;;;;9.40;7.20;;;;;;;15.85;100.00;100779.97;679301;29;1558;-61
2023/08/18 01:19:52;;;;;;;8.65;6.93;;;;;;;15.82;100.00;100775.63;676755;29;834;-62
2023/08/18 01:20:13;;;;;;;9.60;7.10;;;;;;;15.81;100.00;100774.78;675304;29;4445;-61
2023/08/18 01:20:34;;;;;;;9.90;7.32;;;;;;;15.80;100.00;100780.09;676423;29;838;-61
2023/08/18 01:20:58;;;;;;;9.27;7.30;;;;;;;15.77;100.00;100778.38;675833;29;1320;-63
2023/08/18 01:21:21;;;;;;;9.27;7.15;;;;;;;15.79;100.00;100770.41;673926;29;2514;-60
2023/08/18 01:21:43;;;;;;;9.75;7.18;;;;;;;15.79;100.00;100773.06;678319;29;2438;-62
2023/08/18 01:22:11;;;;;;;10.60;7.10;;;;;;;15.79;100.00;100783.59;680334;29;1214;-61
2023/08/18 01:22:34;;;;;;;9.07;7.22;;;;;;;15.79;100.00;100775.69;679568;29;941;-61
2023/08/18 01:22:59;;;;;;;12.57;7.60;;;;;;;15.79;100.00;100775.69;680899;29;1802;-63
2023/08/18 01:23:19;;;;;;;9.98;7.45;;;;;;;15.78;100.00;100773.94;676419;28;4534;-62
2023/08/18 01:23:40;;;;;;;9.30;7.50;;;;;;;15.78;100.00;100779.22;681620;29;1122;-61
2023/08/18 01:24:03;;;;;;;10.05;7.45;;;;;;;15.78;100.00;100773.94;675213;29;1964;-62
2023/08/18 01:24:26;;;;;;;10.98;7.40;;;;;;;15.77;100.00;100772.22;675410;29;1261;-62
2023/08/18 01:24:46;;;;;;;11.02;7.13;;;;;;;15.78;100.00;100777.47;679357;29;1153;-61
2023/08/18 01:25:07;;;;;;;11.40;7.67;;;;;;;15.78;100.00;100776.59;678385;29;2435;-61
2023/08/18 01:25:28;;;;;;;9.77;7.07;;;;;;;15.77;100.00;100772.22;676292;29;1349;-62
2023/08/18 01:25:49;;;;;;;10.93;7.28;;;;;;;15.76;100.00;100775.78;675561;29;1336;-60
2023/08/18 01:26:09;;;;;;;11.18;7.32;;;;;;;15.75;100.00;100780.16;675486;28;4539;-61
2023/08/18 01:26:30;;;;;;;9.53;7.20;;;;;;;15.76;100.00;100775.78;673089;29;1557;-60
2023/08/18 01:26:53;;;;;;;9.98;7.47;;;;;;;15.76;100.00;100776.63;674759;29;1555;-60
2023/08/18 01:27:13;;;;;;;10.50;7.73;;;;;;;15.77;100.00;100777.47;674559;29;932;-61
2023/08/18 01:27:36;;;;;;;9.85;7.82;;;;;;;15.77;100.00;100777.47;676198;29;1562;-63
2023/08/18 01:28:00;;;;;;;9.95;7.45;;;;;;;15.76;100.00;100778.41;676877;29;1125;-63
2023/08/18 01:28:20;;;;;;;9.20;7.30;;;;;;;15.76;100.00;100781.91;677295;29;1803;-60
2023/08/18 01:28:43;;;;;;;9.47;7.23;;;;;;;15.77;100.00;100772.22;680529;29;1137;-62
2023/08/18 01:29:04;;;;;;;10.75;7.43;;;;;;;15.77;100.00;100777.47;681220;29;1055;-62
2023/08/18 01:29:27;;;;;;;10.57;7.75;;;;;;;15.77;100.00;100778.38;677493;28;4531;-61
2023/08/18 01:29:48;;;;;;;11.57;8.48;;;;;;;15.79;100.00;100773.06;677521;29;1445;-62
2023/08/18 01:30:09;;;;;;;10.60;8.70;;;;;;;15.79;100.00;100773.94;677401;29;1567;-60
2023/08/18 01:30:42;;;;;;;9.93;7.80;;;;;;;15.80;100.00;100772.19;678397;29;822;-60
2023/08/18 01:31:10;;;;;;;10.27;7.10;;;;;;;15.80;100.00;100772.19;678457;29;1245;-61
2023/08/18 01:31:32;;;;;;;9.93;7.40;;;;;;;15.79;100.00;100768.66;674142;29;1233;-61
2023/08/18 01:31:55;;;;;;;9.60;7.20;;;;;;;15.77;100.00;100769.56;676093;29;1291;-61
2023/08/18 01:32:18;;;;;;;10.50;7.50;;;;;;;15.78;100.00;100776.59;674320;29;4362;-61
2023/08/18 01:32:50;;;;;;;9.73;7.55;;;;;;;15.78;100.00;100771.31;674426;29;2038;-61
2023/08/18 01:33:18;;;;;;;11.25;7.20;;;;;;;15.78;100.00;100774.84;673863;29;1024;-61
2023/08/18 01:33:44;;;;;;;8.95;7.07;;;;;;;15.78;100.00;100774.84;676594;29;1016;-60
2023/08/18 01:34:09;;;;;;;10.00;7.47;;;;;;;15.78;100.00;100769.56;677622;29;835;-60
2023/08/18 01:34:34;;;;;;;11.77;7.60;;;;;;;15.78;100.00;100773.94;678171;29;1507;-61
2023/08/18 01:34:58;;;;;;;11.48;7.72;;;;;;;15.78;100.00;100768.69;676402;29;1464;-61
2023/08/18 01:35:23;;;;;;;11.07;7.47;;;;;;;15.80;100.00;100777.47;675544;29;4385;-61
2023/08/18 01:35:45;;;;;;;9.45;7.18;;;;;;;15.79;100.00;100770.41;674311;29;1376;-61
2023/08/18 01:36:17;;;;;;;10.30;7.22;;;;;;;15.80;100.00;100772.19;674317;29;941;-63
2023/08/18 01:36:41;;;;;;;9.80;7.03;;;;;;;15.80;100.00;100772.19;676698;29;1372;-62
2023/08/18 01:37:02;;;;;;;8.93;6.82;;;;;;;15.80;100.00;100769.56;679474;29;986;-63
2023/08/18 01:37:25;;;;;;;10.13;7.20;;;;;;;15.79;100.00;100775.69;678179;29;1158;-62
2023/08/18 01:37:47;;;;;;;11.32;7.13;;;;;;;15.78;100.00;100766.94;679724;28;2057;-62
2023/08/18 01:38:09;;;;;;;9.02;7.10;;;;;;;15.78;100.00;100764.28;675379;29;4366;-64
2023/08/18 01:38:30;;;;;;;9.75;6.97;;;;;;;15.78;100.00;100768.69;674092;29;960;-62
2023/08/18 01:38:52;;;;;;;9.93;7.25;;;;;;;15.77;100.00;100770.47;674080;29;1471;-62
2023/08/18 01:39:13;;;;;;;9.68;7.38;;;;;;;15.77;100.00;100772.22;673340;29;1856;-61
2023/08/18 01:39:34;;;;;;;9.85;7.65;;;;;;;15.78;100.00;100772.19;672128;29;1433;-62
2023/08/18 01:39:58;;;;;;;10.35;7.10;;;;;;;15.79;100.00;100775.69;673324;29;1299;-62
2023/08/18 01:40:21;;;;;;;10.10;7.25;;;;;;;15.77;100.00;100772.22;676252;29;1160;-62
2023/08/18 01:40:41;;;;;;;10.55;7.35;;;;;;;15.78;100.00;100780.09;679484;29;957;-63
2023/08/18 01:41:07;;;;;;;9.43;7.97;;;;;;;15.79;100.00;100773.06;676835;29;1248;-62
2023/08/18 01:41:31;;;;;;;9.43;7.85;;;;;;;15.80;100.00;100774.81;677434;29;5060;-61
2023/08/18 01:41:52;;;;;;;9.70;7.30;;;;;;;15.82;100.00;100780.91;677966;29;3677;-64
2023/08/18 01:42:13;;;;;;;10.77;7.38;;;;;;;15.81;100.00;100777.41;678010;29;2435;-62
2023/08/18 01:42:34;;;;;;;10.75;7.28;;;;;;;15.81;100.00;100773.91;674494;29;898;-62
2023/08/18 01:42:54;;;;;;;11.35;7.60;;;;;;;15.80;100.00;100778.31;674580;29;874;-62
2023/08/18 01:43:15;;;;;;;10.85;7.20;;;;;;;15.79;100.00;100776.56;672191;29;1103;-63